Time;durP1;ratioP1;P1;durP2;ratioP2;P2;SDS_P1;SDS_P2;PMS_P1;PMS_P2;Temp;Humidity;BMP_temperature;BMP_pressure;BME280_temperature;BME280_humidity;BME280_pressure;Samples;Min_cycle;Max_cycle;Signal;HPM_P1;HPM_P2
2023/06/05 00:00:39;;;;;;;13.73;12.73;;;;;;;14.68;100.00;93275.66;4998425;28;20283;-83
2023/06/05 00:03:04;;;;;;;14.00;13.00;;;;;;;14.72;100.00;93274.81;5017824;28;20202;-84
2023/06/05 00:05:31;;;;;;;14.10;12.90;;;;;;;14.58;100.00;93265.31;5012132;28;20227;-87
2023/06/05 00:07:56;;;;;;;14.67;13.47;;;;;;;14.57;100.00;93266.38;4990419;28;20275;-83
2023/06/05 00:10:22;;;;;;;15.13;13.67;;;;;;;14.58;100.00;93281.84;5007183;28;20251;-85
2023/06/05 00:12:47;;;;;;;16.13;14.67;;;;;;;14.68;100.00;93278.28;4976991;28;20228;-84
2023/06/05 00:15:12;;;;;;;15.23;13.73;;;;;;;14.36;100.00;93269.31;4973931;28;20224;-84
2023/06/05 00:17:38;;;;;;;14.23;13.03;;;;;;;14.31;100.00;93272.00;4977536;28;20232;-85
2023/06/05 00:20:05;;;;;;;14.10;13.07;;;;;;;14.48;100.00;93290.66;4974387;28;20248;-85
2023/06/05 00:22:31;;;;;;;15.13;13.60;;;;;;;14.32;100.00;93267.50;4974608;29;20208;-85
2023/06/05 00:24:57;;;;;;;14.87;13.57;;;;;;;14.64;100.00;93295.69;4973955;28;20225;-85
2023/06/05 00:27:23;;;;;;;15.33;14.03;;;;;;;14.51;100.00;93275.41;4976410;28;20212;-83
2023/06/05 00:29:49;;;;;;;15.20;13.77;;;;;;;14.41;100.00;93284.97;4973908;28;20221;-84
2023/06/05 00:32:15;;;;;;;16.43;15.00;;;;;;;14.52;100.00;93290.88;4977174;28;20181;-84
2023/06/05 00:34:40;;;;;;;16.13;14.57;;;;;;;14.50;100.00;93258.84;4981491;28;20216;-84
2023/06/05 00:37:06;;;;;;;15.83;14.37;;;;;;;14.60;100.00;93282.31;4974889;28;20302;-84
2023/06/05 00:39:32;;;;;;;16.47;15.07;;;;;;;14.73;100.00;93286.88;4959898;28;20920;-85
2023/06/05 00:41:57;;;;;;;16.63;15.03;;;;;;;14.35;100.00;93241.47;4963759;28;20189;-85
2023/06/05 00:44:23;;;;;;;16.53;14.93;;;;;;;14.40;100.00;93275.53;4973822;28;20235;-83
2023/06/05 00:46:51;;;;;;;17.70;16.10;;;;;;;14.47;100.00;93262.81;4969827;28;20200;-84
2023/06/05 00:49:17;;;;;;;16.77;15.23;;;;;;;14.62;100.00;93256.56;4974627;28;20291;-85
2023/06/05 00:51:45;;;;;;;15.70;14.30;;;;;;;14.70;100.00;93273.50;4961799;28;20252;-84
2023/06/05 00:54:11;;;;;;;17.00;15.63;;;;;;;14.55;100.00;93266.66;4973795;28;20196;-85
2023/06/05 00:56:39;;;;;;;18.07;16.23;;;;;;;14.73;100.00;93249.28;4973584;28;20191;-82
2023/06/05 00:59:05;;;;;;;18.97;16.67;;;;;;;14.70;100.00;93255.13;4984536;28;20208;-84
2023/06/05 01:01:34;;;;;;;17.40;15.70;;;;;;;14.81;100.00;93259.94;4985082;28;20216;-85
2023/06/05 01:04:00;;;;;;;17.93;16.23;;;;;;;14.32;100.00;93255.16;4970478;28;20265;-84
2023/06/05 01:06:27;;;;;;;17.20;15.73;;;;;;;14.43;100.00;93259.22;4971900;28;20195;-86
2023/06/05 01:08:53;;;;;;;17.87;16.47;;;;;;;14.64;100.00;93251.00;4964907;28;20193;-85
2023/06/05 01:11:46;;;;;;;17.30;15.70;;;;;;;14.52;100.00;93252.22;4985941;28;20306;-84
2023/06/05 01:14:22;;;;;;;18.20;16.60;;;;;;;14.63;100.00;93252.09;5012672;28;20210;-85
2023/06/05 01:16:53;;;;;;;17.13;15.77;;;;;;;14.38;100.00;93222.50;4992906;28;20183;-85
2023/06/05 01:19:20;;;;;;;18.60;16.33;;;;;;;14.55;100.00;93247.47;5003059;28;20235;-84
2023/06/05 01:21:46;;;;;;;17.27;15.80;;;;;;;14.55;100.00;93239.59;5013151;28;20214;-85
2023/06/05 01:24:13;;;;;;;17.33;15.77;;;;;;;14.73;100.00;93246.66;5011749;28;20205;-86
2023/06/05 01:27:07;;;;;;;17.03;15.53;;;;;;;14.80;100.00;93242.59;5011339;28;20215;-86
2023/06/05 01:29:42;;;;;;;17.80;16.20;;;;;;;14.71;100.00;93251.44;5000923;28;20231;-86
2023/06/05 01:32:15;;;;;;;17.07;15.40;;;;;;;14.72;100.00;93251.16;5005767;28;20191;-85
2023/06/05 01:34:43;;;;;;;15.87;14.50;;;;;;;14.40;100.00;93214.34;4999131;28;20255;-84
2023/06/05 01:37:14;;;;;;;16.50;15.10;;;;;;;14.60;100.00;93247.41;4997097;28;20219;-85
2023/06/05 01:39:41;;;;;;;16.47;14.87;;;;;;;14.47;100.00;93226.03;4994577;28;20339;-86
2023/06/05 01:42:08;;;;;;;15.97;14.57;;;;;;;14.62;100.00;93243.41;5009138;28;20187;-86
2023/06/05 01:44:34;;;;;;;17.23;15.73;;;;;;;14.43;100.00;93232.94;5021363;28;20234;-86
2023/06/05 01:47:01;;;;;;;16.43;15.03;;;;;;;14.32;100.00;93234.16;5017282;28;20777;-83
2023/06/05 01:49:26;;;;;;;17.50;15.83;;;;;;;14.36;100.00;93223.88;5012479;28;20223;-82
2023/06/05 01:51:54;;;;;;;20.30;14.93;;;;;;;14.43;100.00;93230.31;5012272;28;20182;-86
2023/06/05 01:54:23;;;;;;;17.47;15.67;;;;;;;14.32;100.00;93228.91;5001623;28;20236;-86
2023/06/05 01:56:49;;;;;;;15.83;14.63;;;;;;;14.34;100.00;93226.78;5008781;28;20211;-86
2023/06/05 01:59:15;;;;;;;17.57;15.97;;;;;;;14.07;100.00;93218.72;4993818;28;20951;-86
2023/06/05 02:01:43;;;;;;;17.97;16.27;;;;;;;14.21;100.00;93216.94;4994768;28;20240;-86
2023/06/05 02:04:09;;;;;;;17.17;15.63;;;;;;;14.30;100.00;93225.00;5011798;28;20184;-86
2023/06/05 02:06:41;;;;;;;16.53;15.03;;;;;;;14.20;100.00;93215.41;5012260;28;20190;-87
2023/06/05 02:09:08;;;;;;;17.80;16.20;;;;;;;14.07;100.00;93187.22;5012638;28;20263;-86
2023/06/05 02:11:37;;;;;;;17.53;16.03;;;;;;;14.00;100.00;93215.69;5023683;28;20262;-87
2023/06/05 02:14:03;;;;;;;16.97;15.13;;;;;;;14.19;100.00;93213.81;5011417;28;20192;-86
2023/06/05 02:16:28;;;;;;;17.27;15.83;;;;;;;14.37;100.00;93226.19;5010082;28;20218;-86
2023/06/05 02:18:57;;;;;;;17.43;15.33;;;;;;;14.11;100.00;93209.25;5010580;28;20274;-80
2023/06/05 02:21:22;;;;;;;16.67;15.17;;;;;;;14.08;100.00;93198.50;4999713;28;20204;-87
2023/06/05 02:23:49;;;;;;;17.40;15.70;;;;;;;14.06;100.00;93219.81;5000177;28;20203;-85
2023/06/05 02:26:17;;;;;;;16.33;14.93;;;;;;;14.21;100.00;93222.19;5010181;28;20235;-87
2023/06/05 02:28:43;;;;;;;16.70;15.17;;;;;;;14.13;100.00;93209.72;5009537;28;20178;-86
2023/06/05 02:31:08;;;;;;;18.20;16.50;;;;;;;14.15;100.00;93204.97;5000122;28;20238;-86
2023/06/05 02:33:34;;;;;;;17.97;16.37;;;;;;;14.21;100.00;93206.44;5016714;28;20199;-87
2023/06/05 02:35:59;;;;;;;17.53;15.73;;;;;;;14.29;100.00;93229.47;5000289;28;20219;-86
2023/06/05 02:38:26;;;;;;;16.87;15.37;;;;;;;14.38;100.00;93233.00;4999905;28;20215;-86
2023/06/05 02:40:52;;;;;;;16.13;14.53;;;;;;;14.38;100.00;93225.13;4997424;28;20227;-86
2023/06/05 02:43:18;;;;;;;17.10;15.50;;;;;;;14.41;100.00;93229.81;5011393;28;20206;-86
2023/06/05 02:45:44;;;;;;;16.73;15.27;;;;;;;14.25;100.00;93196.97;5010853;28;20227;-86
2023/06/05 02:48:10;;;;;;;17.37;16.00;;;;;;;14.25;100.00;93207.47;5011150;28;20219;-86
2023/06/05 02:50:35;;;;;;;17.53;16.03;;;;;;;14.43;100.00;93227.69;5010571;28;20224;-85
2023/06/05 02:53:00;;;;;;;15.47;14.17;;;;;;;14.43;100.00;93240.81;5010454;28;20230;-85
2023/06/05 02:55:29;;;;;;;17.07;15.57;;;;;;;14.37;100.00;93239.34;5010479;28;20223;-78
2023/06/05 02:57:57;;;;;;;17.50;15.97;;;;;;;14.36;100.00;93227.28;5010889;28;20238;-77
2023/06/05 03:00:22;;;;;;;17.77;16.03;;;;;;;14.30;100.00;93207.38;5010135;28;20250;-77
2023/06/05 03:02:48;;;;;;;17.80;16.10;;;;;;;14.37;100.00;93235.91;4993183;28;20188;-80
2023/06/05 03:05:14;;;;;;;16.40;15.00;;;;;;;14.57;100.00;93234.84;5000878;28;20228;-77
2023/06/05 03:07:40;;;;;;;16.53;15.03;;;;;;;14.84;100.00;93251.47;5010883;28;20191;-77
2023/06/05 03:10:06;;;;;;;17.13;15.40;;;;;;;15.15;100.00;93249.09;5015001;28;20214;-77
2023/06/05 03:12:32;;;;;;;18.33;16.80;;;;;;;15.27;100.00;93231.00;5019689;28;20229;-76
2023/06/05 03:14:57;;;;;;;16.87;15.47;;;;;;;15.40;100.00;93227.59;5009977;28;20211;-77
2023/06/05 03:17:24;;;;;;;15.50;14.30;;;;;;;15.57;100.00;93254.13;5010521;28;20211;-77
2023/06/05 03:19:50;;;;;;;16.63;15.33;;;;;;;15.53;100.00;93256.53;5009616;28;20231;-77
2023/06/05 03:22:19;;;;;;;14.63;13.47;;;;;;;15.34;100.00;93249.78;5010426;28;20231;-76
2023/06/05 03:24:45;;;;;;;15.80;14.50;;;;;;;15.52;100.00;93247.09;5010070;28;20219;-77
2023/06/05 03:27:10;;;;;;;14.57;13.37;;;;;;;15.63;100.00;93242.41;4997506;28;20171;-77
2023/06/05 03:29:36;;;;;;;15.63;14.43;;;;;;;15.91;98.76;93265.00;5012288;28;20253;-77
2023/06/05 03:32:01;;;;;;;15.37;14.03;;;;;;;15.70;100.00;93250.72;5014499;28;20195;-87
2023/06/05 03:34:27;;;;;;;15.87;14.57;;;;;;;15.35;99.23;93165.31;5018871;28;20431;-79
2023/06/05 03:36:52;;;;;;;15.97;14.77;;;;;;;15.80;99.06;93221.53;5007095;28;20239;-78
2023/06/05 03:39:18;;;;;;;14.87;13.63;;;;;;;16.38;97.96;93272.44;5013769;28;20226;-76
2023/06/05 03:41:43;;;;;;;16.13;14.83;;;;;;;16.52;95.97;93249.50;5009371;28;20210;-76
2023/06/05 03:44:09;;;;;;;15.47;14.20;;;;;;;16.93;94.42;93278.31;4987859;28;20191;-74
2023/06/05 03:46:35;;;;;;;14.67;13.50;;;;;;;16.81;93.15;93239.28;5012787;28;20239;-86
2023/06/05 03:49:08;;;;;;;16.50;15.17;;;;;;;17.19;92.38;93258.13;5009461;28;20183;-83
2023/06/05 03:51:34;;;;;;;16.37;14.87;;;;;;;17.34;91.59;93281.50;4995462;28;20219;-86
2023/06/05 03:54:00;;;;;;;16.87;15.50;;;;;;;16.84;92.37;93203.66;5012133;28;20195;-86
2023/06/05 03:56:33;;;;;;;18.40;16.60;;;;;;;16.58;97.39;93279.91;5012440;28;20192;-86
2023/06/05 03:59:08;;;;;;;20.37;18.13;;;;;;;17.31;96.60;93288.16;4995181;28;20283;-85
2023/06/05 04:01:36;;;;;;;21.37;19.27;;;;;;;17.32;94.14;93284.44;5012657;28;20208;-74
2023/06/05 04:04:04;;;;;;;19.90;17.97;;;;;;;17.34;93.71;93282.28;5011606;28;20187;-73
2023/06/05 04:06:32;;;;;;;19.63;17.63;;;;;;;17.85;92.72;93273.06;5012126;28;20210;-70
2023/06/05 04:08:58;;;;;;;19.73;17.63;;;;;;;18.24;91.26;93279.03;5011680;28;20179;-71
2023/06/05 04:11:26;;;;;;;20.70;18.60;;;;;;;18.01;91.55;93269.66;5012146;28;20227;-69
2023/06/05 04:13:54;;;;;;;20.17;18.27;;;;;;;18.54;89.23;93278.19;5012006;28;20219;-70
2023/06/05 04:16:20;;;;;;;20.60;18.33;;;;;;;18.53;89.15;93284.56;5012038;28;20216;-70
2023/06/05 04:18:45;;;;;;;20.43;18.00;;;;;;;18.21;90.35;93263.78;5012115;28;20210;-76
2023/06/05 04:21:11;;;;;;;21.13;18.90;;;;;;;18.67;88.24;93277.25;5014144;28;20315;-73
2023/06/05 04:23:36;;;;;;;20.20;18.20;;;;;;;18.54;89.08;93280.03;5004934;28;20247;-72
2023/06/05 04:26:02;;;;;;;19.37;17.50;;;;;;;18.69;88.13;93284.88;5010971;28;20228;-74
2023/06/05 04:28:29;;;;;;;19.53;17.63;;;;;;;19.55;84.65;93286.31;5008462;28;20189;-72
2023/06/05 04:30:58;;;;;;;20.17;17.97;;;;;;;19.14;86.80;93292.16;5008754;28;20271;-72
2023/06/05 04:33:23;;;;;;;21.33;19.20;;;;;;;19.30;86.90;93295.09;5011478;28;20198;-72
2023/06/05 04:35:49;;;;;;;21.23;19.23;;;;;;;19.67;83.86;93289.09;5011003;28;20225;-83
2023/06/05 04:38:14;;;;;;;21.27;19.13;;;;;;;20.42;80.86;93267.81;5014476;28;20211;-83
2023/06/05 04:40:40;;;;;;;20.90;18.23;;;;;;;20.40;80.01;93269.25;4988815;28;20716;-82
2023/06/05 04:43:07;;;;;;;20.73;18.33;;;;;;;19.25;85.79;93274.09;5021910;28;20192;-82
2023/06/05 04:45:32;;;;;;;22.47;18.77;;;;;;;19.06;85.99;93266.50;5011630;28;20288;-82
2023/06/05 04:47:57;;;;;;;20.30;18.30;;;;;;;19.63;83.90;93272.28;5009144;28;20188;-83
2023/06/05 04:50:25;;;;;;;19.30;17.33;;;;;;;18.98;86.42;93253.25;5011501;28;20221;-82
2023/06/05 04:52:55;;;;;;;21.53;19.40;;;;;;;19.02;84.24;93196.72;5012853;28;21118;-83
2023/06/05 04:55:20;;;;;;;19.60;17.53;;;;;;;19.79;83.02;93277.81;4985535;28;20229;-84
2023/06/05 04:57:48;;;;;;;21.33;19.23;;;;;;;19.90;83.13;93286.97;5013819;28;20247;-82
2023/06/05 05:00:16;;;;;;;20.60;18.47;;;;;;;19.84;83.37;93275.78;5013492;28;20228;-82
2023/06/05 05:02:42;;;;;;;21.40;18.33;;;;;;;20.77;79.00;93280.84;5012027;28;20177;-83
2023/06/05 05:05:08;;;;;;;21.87;17.93;;;;;;;20.51;80.24;93296.97;5007327;28;20309;-82
2023/06/05 05:07:35;;;;;;;18.37;16.63;;;;;;;20.21;80.97;93267.03;5006497;28;20201;-82
2023/06/05 05:10:00;;;;;;;19.67;16.77;;;;;;;20.14;80.67;93277.34;5015479;28;20280;-82
2023/06/05 05:12:26;;;;;;;19.23;17.37;;;;;;;20.41;79.79;93255.66;5012353;28;20232;-83
2023/06/05 05:14:51;;;;;;;23.00;18.33;;;;;;;21.06;76.94;93267.53;5012080;28;20220;-83
2023/06/05 05:17:19;;;;;;;20.33;18.43;;;;;;;20.41;80.08;93281.41;5012428;28;20249;-82
2023/06/05 05:19:45;;;;;;;20.30;18.33;;;;;;;21.01;78.03;93281.00;5011467;28;20242;-82
2023/06/05 05:22:10;;;;;;;19.35;17.48;;;;;;;20.92;79.39;93290.88;5012162;28;20181;-83
2023/06/05 05:24:36;;;;;;;20.30;16.77;;;;;;;21.76;76.87;93304.50;5016002;28;20284;-83
2023/06/05 05:27:02;;;;;;;19.57;17.67;;;;;;;22.07;74.57;93278.16;4996085;28;20181;-82
2023/06/05 05:29:27;;;;;;;19.80;17.90;;;;;;;21.22;77.09;93266.56;5012319;28;20264;-83
2023/06/05 05:31:52;;;;;;;19.38;16.48;;;;;;;22.23;72.81;93275.59;5012143;28;20197;-83
2023/06/05 05:34:18;;;;;;;18.40;16.65;;;;;;;24.16;64.89;93271.06;5017585;28;20227;-83
2023/06/05 05:36:43;;;;;;;18.75;16.35;;;;;;;24.13;65.73;93308.31;5012616;28;20237;-82
2023/06/05 05:39:10;;;;;;;19.42;15.95;;;;;;;25.76;59.50;93244.59;4999417;28;20208;-83
2023/06/05 05:41:35;;;;;;;17.25;15.55;;;;;;;27.15;54.80;93314.84;5012461;28;20195;-83
2023/06/05 05:44:00;;;;;;;16.08;14.68;;;;;;;27.40;54.70;93299.06;4999494;28;20308;-83
2023/06/05 05:46:26;;;;;;;15.98;14.48;;;;;;;27.34;52.70;93300.53;5012371;28;20198;-82
2023/06/05 05:48:51;;;;;;;16.42;14.90;;;;;;;28.16;50.14;93276.84;4998501;28;20212;-83
2023/06/05 05:51:17;;;;;;;15.48;14.15;;;;;;;26.26;55.78;93277.19;4984269;28;20231;-81
2023/06/05 05:53:43;;;;;;;17.00;15.45;;;;;;;23.67;64.06;93270.59;5012843;28;20674;-80
2023/06/05 05:56:08;;;;;;;17.30;15.50;;;;;;;22.69;69.15;93278.56;5011564;28;20222;-80
2023/06/05 05:58:33;;;;;;;16.50;15.00;;;;;;;24.49;64.69;93209.25;5011924;28;20220;-80
2023/06/05 06:00:59;;;;;;;16.48;14.95;;;;;;;26.96;56.46;93292.75;4986782;28;20226;-80
2023/06/05 06:03:26;;;;;;;19.65;15.98;;;;;;;25.93;57.39;93276.97;5011726;28;20200;-80
2023/06/05 06:05:52;;;;;;;16.75;14.98;;;;;;;25.93;56.64;93268.19;5012571;28;20237;-80
2023/06/05 06:08:18;;;;;;;15.90;14.52;;;;;;;27.39;52.70;93292.16;5002779;28;20202;-81
2023/06/05 06:10:43;;;;;;;14.52;13.07;;;;;;;26.93;53.60;93288.13;5018617;28;20237;-80
2023/06/05 06:13:10;;;;;;;16.65;14.88;;;;;;;26.89;54.08;93298.00;5011227;28;20196;-80
2023/06/05 06:15:38;;;;;;;15.82;14.32;;;;;;;25.27;59.05;93284.53;5010382;28;20232;-80
2023/06/05 06:18:04;;;;;;;17.00;15.23;;;;;;;24.16;64.65;93272.94;5012515;28;20268;-80
2023/06/05 06:20:29;;;;;;;15.93;14.52;;;;;;;25.94;58.59;93302.63;5013018;28;20223;-80
2023/06/05 06:22:55;;;;;;;15.18;13.95;;;;;;;26.03;57.86;93281.78;5010724;28;20284;-80
2023/06/05 06:25:21;;;;;;;17.00;14.70;;;;;;;25.52;58.49;93283.16;5011226;28;20252;-73
2023/06/05 06:27:49;;;;;;;17.20;14.10;;;;;;;25.01;61.12;93285.16;5010619;28;20217;-77
2023/06/05 06:30:15;;;;;;;16.27;14.57;;;;;;;25.25;61.18;93295.59;5011361;28;20248;-75
2023/06/05 06:32:40;;;;;;;15.98;14.48;;;;;;;24.77;62.60;93281.97;5012508;28;20178;-75
2023/06/05 06:35:06;;;;;;;16.15;14.65;;;;;;;25.58;60.58;93286.28;5006760;28;20293;-73
2023/06/05 06:37:32;;;;;;;16.38;14.68;;;;;;;25.75;60.20;93291.97;5020447;28;20233;-71
2023/06/05 06:39:58;;;;;;;16.40;14.38;;;;;;;25.12;61.83;93285.41;5006504;28;20268;-71
2023/06/05 06:42:23;;;;;;;17.33;15.70;;;;;;;23.00;68.55;93267.25;5011073;28;20185;-70
2023/06/05 06:44:55;;;;;;;17.27;15.57;;;;;;;23.42;70.12;93274.53;5010139;28;20229;-69
2023/06/05 06:47:21;;;;;;;16.77;15.15;;;;;;;24.00;65.92;93267.63;5010353;28;20185;-68
2023/06/05 06:49:46;;;;;;;17.63;15.77;;;;;;;24.09;65.80;93275.47;5009639;28;20846;-71
2023/06/05 06:52:11;;;;;;;17.33;15.65;;;;;;;23.51;67.46;93274.38;5016808;28;20200;-69
2023/06/05 06:54:37;;;;;;;17.38;15.57;;;;;;;23.48;69.06;93273.16;5002984;28;20253;-69
2023/06/05 06:57:03;;;;;;;16.17;14.68;;;;;;;24.01;66.05;93258.50;5009723;28;20190;-69
2023/06/05 06:59:28;;;;;;;19.00;16.20;;;;;;;23.50;66.99;93264.81;5008374;28;20238;-69
2023/06/05 07:02:11;;;;;;;17.63;15.57;;;;;;;23.54;67.37;93266.47;5009206;28;20186;-67
2023/06/05 07:04:38;;;;;;;17.42;15.63;;;;;;;23.40;68.69;93266.09;5008510;28;20250;-68
2023/06/05 07:07:04;;;;;;;16.75;15.13;;;;;;;23.66;67.91;93263.72;5009521;28;20226;-68
2023/06/05 07:09:29;;;;;;;18.65;16.77;;;;;;;23.40;66.35;93258.09;4991380;28;20294;-69
2023/06/05 07:11:55;;;;;;;18.17;16.30;;;;;;;23.54;68.98;93257.69;5006413;28;20233;-68
2023/06/05 07:14:21;;;;;;;18.70;16.55;;;;;;;23.28;67.33;93257.38;5008792;28;20234;-68
2023/06/05 07:16:48;;;;;;;17.67;15.88;;;;;;;23.41;66.52;93264.97;5009310;28;20224;-69
2023/06/05 07:19:15;;;;;;;18.10;16.35;;;;;;;22.90;69.03;93252.50;5008577;28;22582;-68
2023/06/05 07:21:40;;;;;;;17.20;15.52;;;;;;;22.89;68.61;93258.97;5009112;28;20192;-69
2023/06/05 07:24:06;;;;;;;19.15;16.67;;;;;;;23.54;67.88;93266.47;5008389;28;20211;-69
2023/06/05 07:26:32;;;;;;;17.63;15.13;;;;;;;23.40;66.46;93268.75;5008938;28;20184;-69
2023/06/05 07:28:57;;;;;;;19.55;15.80;;;;;;;23.38;68.30;93264.88;5008370;28;20214;-68
2023/06/05 07:31:23;;;;;;;16.52;14.82;;;;;;;23.96;67.07;93276.63;5008365;28;20173;-66
2023/06/05 07:33:48;;;;;;;18.20;16.30;;;;;;;23.47;66.42;93262.84;5008356;28;20261;-67
2023/06/05 07:36:14;;;;;;;16.17;14.48;;;;;;;23.80;64.93;93268.63;5008165;28;20222;-68
2023/06/05 07:38:40;;;;;;;16.58;15.07;;;;;;;24.16;63.78;93275.59;5008249;28;20266;-69
2023/06/05 07:41:08;;;;;;;14.10;12.90;;;;;;;24.30;65.78;93273.25;5008359;28;20301;-69
2023/06/05 07:43:34;;;;;;;16.23;14.70;;;;;;;24.57;59.55;93280.38;5008429;28;20193;-69
2023/06/05 07:45:59;;;;;;;14.50;13.30;;;;;;;24.60;60.26;93275.13;5008431;28;20236;-70
2023/06/05 07:48:24;;;;;;;14.52;13.32;;;;;;;24.63;61.47;93278.97;5008729;28;20194;-68
2023/06/05 07:50:50;;;;;;;13.75;12.60;;;;;;;25.03;58.64;93258.88;5013200;28;20219;-71
2023/06/05 07:53:15;;;;;;;13.80;12.60;;;;;;;25.27;57.06;93279.19;5004189;28;20183;-70
2023/06/05 07:55:40;;;;;;;14.40;13.10;;;;;;;24.88;57.80;93253.59;5008014;28;20233;-69
2023/06/05 07:58:06;;;;;;;14.85;13.48;;;;;;;24.94;59.71;93290.38;5007924;28;20945;-69
2023/06/05 08:00:33;;;;;;;14.02;12.73;;;;;;;25.21;59.07;93293.97;5002649;28;20248;-68
2023/06/05 08:03:00;;;;;;;14.32;13.02;;;;;;;25.28;56.78;93280.75;5008595;28;20220;-69
2023/06/05 08:05:25;;;;;;;14.02;12.85;;;;;;;25.21;55.49;93288.63;5007950;28;20247;-68
2023/06/05 08:07:51;;;;;;;14.15;12.75;;;;;;;24.81;57.19;93296.22;5007557;28;20206;-68
2023/06/05 08:10:16;;;;;;;14.57;13.27;;;;;;;24.72;58.18;93288.38;5008303;28;20295;-69
2023/06/05 08:12:41;;;;;;;13.90;12.60;;;;;;;24.44;58.09;93297.63;5008191;28;20226;-68
2023/06/05 08:15:07;;;;;;;14.90;13.38;;;;;;;24.51;58.50;93292.44;5008225;28;20304;-69
2023/06/05 08:17:33;;;;;;;16.52;14.88;;;;;;;24.05;60.60;93298.63;5011813;28;20221;-68
2023/06/05 08:19:58;;;;;;;15.40;14.00;;;;;;;24.01;60.26;93297.75;5012323;28;20241;-68
2023/06/05 08:22:24;;;;;;;16.98;15.13;;;;;;;23.50;64.64;93286.91;5010950;28;20201;-69
2023/06/05 08:24:50;;;;;;;17.60;15.80;;;;;;;23.51;65.32;93287.69;5011964;28;20241;-68
2023/06/05 08:27:17;;;;;;;17.27;15.48;;;;;;;23.32;64.88;93263.56;5012145;28;20201;-68
2023/06/05 08:29:42;;;;;;;18.48;16.50;;;;;;;23.00;68.69;93293.88;5011503;28;20231;-67
2023/06/05 08:32:08;;;;;;;18.38;16.50;;;;;;;23.20;66.29;93301.69;5012038;28;20269;-67
2023/06/05 08:34:35;;;;;;;19.23;16.33;;;;;;;22.80;68.51;93303.56;5006099;28;20686;-67
2023/06/05 08:37:00;;;;;;;18.77;16.88;;;;;;;22.82;69.12;93304.03;5011704;28;20226;-67
2023/06/05 08:39:31;;;;;;;16.92;15.30;;;;;;;22.50;67.87;93312.94;5006924;28;20230;-68
2023/06/05 08:41:59;;;;;;;19.73;17.10;;;;;;;21.28;72.57;93304.31;5011421;28;20220;-68
2023/06/05 08:44:27;;;;;;;18.55;16.65;;;;;;;21.85;72.38;93307.81;5010993;28;20265;-69
2023/06/05 08:47:00;;;;;;;18.75;16.52;;;;;;;22.19;71.40;93312.72;5011551;28;20188;-68
2023/06/05 08:49:29;;;;;;;18.85;16.83;;;;;;;21.62;75.20;93309.31;5006422;28;20286;-68
2023/06/05 08:51:58;;;;;;;17.63;15.68;;;;;;;22.12;72.71;93317.81;5011499;28;20202;-69
2023/06/05 08:54:24;;;;;;;17.45;15.60;;;;;;;22.12;72.30;93307.94;5011164;28;20268;-68
2023/06/05 08:56:52;;;;;;;16.75;14.95;;;;;;;22.07;71.23;93310.81;5011573;28;20195;-67
2023/06/05 08:59:19;;;;;;;17.15;15.45;;;;;;;21.78;73.14;93303.03;5010394;28;20239;-69
2023/06/05 09:01:47;;;;;;;19.70;15.52;;;;;;;21.87;73.58;93305.59;5011210;28;20205;-69
2023/06/05 09:04:12;;;;;;;19.50;17.60;;;;;;;21.68;73.24;93302.66;4988366;28;20187;-70
2023/06/05 09:06:39;;;;;;;18.55;16.73;;;;;;;21.60;73.35;93311.50;5011019;28;20217;-69
2023/06/05 09:09:05;;;;;;;17.95;15.80;;;;;;;21.59;74.31;93312.59;5010661;28;20242;-69
2023/06/05 09:11:32;;;;;;;18.00;16.10;;;;;;;21.70;75.08;93313.72;5006157;28;20252;-71
2023/06/05 09:13:59;;;;;;;19.02;17.08;;;;;;;21.60;75.08;93317.63;5008833;28;20186;-70
2023/06/05 09:16:39;;;;;;;18.83;16.92;;;;;;;21.71;76.99;93317.97;5009478;28;20184;-70
2023/06/05 09:19:06;;;;;;;18.60;16.65;;;;;;;21.62;74.73;93317.28;5008698;28;20218;-70
2023/06/05 09:21:32;;;;;;;19.50;17.35;;;;;;;21.62;74.68;93319.94;5010854;28;20208;-70
2023/06/05 09:24:17;;;;;;;19.20;17.33;;;;;;;21.71;75.84;93328.59;5010064;28;20204;-70
2023/06/05 09:27:06;;;;;;;18.15;16.25;;;;;;;21.84;75.92;93317.69;5001108;28;20196;-70
2023/06/05 09:29:35;;;;;;;21.40;18.02;;;;;;;21.90;76.73;93321.66;5006940;28;20246;-68
2023/06/05 09:32:05;;;;;;;23.40;18.77;;;;;;;21.76;77.62;93293.88;5010668;28;20196;-68
2023/06/05 09:34:40;;;;;;;19.75;16.33;;;;;;;21.96;77.03;93324.91;5003581;28;20231;-70
2023/06/05 09:37:08;;;;;;;21.85;17.63;;;;;;;21.84;76.79;93322.22;5010940;28;20273;-71
2023/06/05 09:39:38;;;;;;;19.98;17.75;;;;;;;21.33;81.72;93320.06;5010490;28;20240;-71
2023/06/05 09:42:04;;;;;;;19.23;16.95;;;;;;;21.79;78.50;93327.75;5010342;28;20204;-71
2023/06/05 09:44:32;;;;;;;19.58;16.40;;;;;;;21.97;76.04;93326.44;5010806;28;20308;-71
2023/06/05 09:46:58;;;;;;;17.85;15.95;;;;;;;21.78;77.46;93326.97;5010245;28;20214;-71
2023/06/05 09:49:30;;;;;;;17.40;15.60;;;;;;;21.74;77.18;93322.63;5009851;28;20222;-70
2023/06/05 09:51:57;;;;;;;16.45;14.85;;;;;;;21.76;76.24;93320.44;5010320;28;20223;-71
2023/06/05 09:54:26;;;;;;;17.75;15.90;;;;;;;21.65;76.61;93316.63;5009415;28;20267;-70
2023/06/05 09:56:57;;;;;;;19.58;16.13;;;;;;;21.91;74.86;93317.13;5010063;28;20257;-70
2023/06/05 09:59:22;;;;;;;17.80;15.73;;;;;;;21.61;76.74;93302.41;5009113;28;20236;-70
2023/06/05 10:01:50;;;;;;;17.13;15.43;;;;;;;21.68;76.13;93311.41;4983231;28;20192;-71
2023/06/05 10:04:20;;;;;;;25.05;16.58;;;;;;;21.08;78.06;93299.81;5009854;28;20245;-71
2023/06/05 10:06:46;;;;;;;16.60;15.05;;;;;;;21.83;75.48;93302.06;5009718;28;20194;-70
2023/06/05 10:09:14;;;;;;;19.33;15.77;;;;;;;22.13;73.15;93292.78;5005413;28;20200;-71
2023/06/05 10:11:41;;;;;;;17.67;15.82;;;;;;;22.39;73.81;93301.19;5009976;28;20228;-69
2023/06/05 10:14:09;;;;;;;17.33;15.60;;;;;;;22.12;77.71;93286.66;5009372;28;20201;-70
2023/06/05 10:16:35;;;;;;;18.77;16.90;;;;;;;22.43;77.22;93296.72;5006560;28;20193;-69
2023/06/05 10:19:03;;;;;;;17.48;15.68;;;;;;;21.74;82.85;93301.34;4985435;28;20222;-69
2023/06/05 10:21:29;;;;;;;18.90;16.95;;;;;;;21.42;85.46;93302.94;5009872;28;20188;-69
2023/06/05 10:24:05;;;;;;;22.70;17.35;;;;;;;21.09;88.74;93306.69;4999170;28;20242;-70
2023/06/05 10:26:50;;;;;;;18.00;16.20;;;;;;;21.40;85.71;93299.06;4998833;28;20203;-69
2023/06/05 10:29:37;;;;;;;18.30;16.40;;;;;;;21.90;84.62;93302.28;5008892;28;20235;-72
2023/06/05 10:32:34;;;;;;;19.60;17.45;;;;;;;22.28;81.33;93294.75;5009617;28;20202;-71
2023/06/05 10:35:12;;;;;;;18.27;16.48;;;;;;;22.40;83.93;93294.75;5008392;28;20265;-72
2023/06/05 10:38:04;;;;;;;19.38;17.30;;;;;;;22.63;82.21;93290.53;4996704;28;20219;-72
2023/06/05 10:40:31;;;;;;;20.27;16.80;;;;;;;22.68;80.31;93284.22;5009047;28;20288;-72
2023/06/05 10:43:23;;;;;;;22.40;15.93;;;;;;;22.79;80.13;93279.94;5009899;28;20209;-72
2023/06/05 10:45:48;;;;;;;17.98;15.82;;;;;;;22.86;79.13;93278.28;4963619;28;20234;-72
2023/06/05 10:48:16;;;;;;;16.40;14.80;;;;;;;22.88;79.33;93281.38;5007396;28;20644;-72
2023/06/05 10:50:42;;;;;;;18.67;16.15;;;;;;;23.05;78.35;93275.75;5009288;28;20228;-70
2023/06/05 10:53:44;;;;;;;21.48;16.23;;;;;;;23.20;77.30;93268.94;5009314;28;20225;-71
2023/06/05 10:56:50;;;;;;;18.75;15.52;;;;;;;23.53;78.27;93272.88;5008727;28;20248;-72
2023/06/05 10:59:15;;;;;;;18.83;15.57;;;;;;;23.66;80.26;93260.25;4993988;28;20231;-72
2023/06/05 11:01:41;;;;;;;18.55;15.43;;;;;;;24.19;76.80;93259.69;5009195;28;20178;-73
2023/06/05 11:04:07;;;;;;;17.27;15.48;;;;;;;23.62;79.83;93268.19;5008889;28;20199;-73
2023/06/05 11:06:32;;;;;;;14.38;12.90;;;;;;;24.04;71.08;93262.38;5009752;28;20216;-69
2023/06/05 11:09:13;;;;;;;13.90;12.85;;;;;;;24.14;71.66;93261.84;5007149;28;20187;-70
2023/06/05 11:12:05;;;;;;;14.43;12.98;;;;;;;24.02;70.94;93248.59;5011035;28;20236;-70
2023/06/05 11:14:57;;;;;;;13.60;12.40;;;;;;;23.84;74.91;93255.38;5004727;28;20297;-70
2023/06/05 11:17:30;;;;;;;13.32;12.10;;;;;;;24.20;73.24;93261.25;5004405;28;20264;-69